Time;durP1;ratioP1;P1;durP2;ratioP2;P2;SDS_P1;SDS_P2;PMS_P1;PMS_P2;Temp;Humidity;BMP_temperature;BMP_pressure;BME280_temperature;BME280_humidity;BME280_pressure;Samples;Min_cycle;Max_cycle;Signal;HPM_P1;HPM_P2
2023/12/20 00:03:04;;;;;;;3.90;1.70;;;;;;;;;;10457141;28;20052;-75
2023/12/20 00:08:09;;;;;;;4.63;1.90;;;;;;;;;;10470610;28;20054;-75
2023/12/20 00:13:16;;;;;;;2.67;1.65;;;;;;;;;;10470181;28;20044;-74
2023/12/20 00:18:20;;;;;;;3.05;1.27;;;;;;;;;;10473869;28;20043;-75
2023/12/20 00:23:33;;;;;;;2.50;1.27;;;;;;;;;;10454100;28;20044;-74
2023/12/20 00:28:38;;;;;;;2.90;1.00;;;;;;;;;;10473156;28;20049;-74
2023/12/20 00:33:52;;;;;;;2.47;1.40;;;;;;;;;;10452145;28;20056;-75
2023/12/20 00:39:00;;;;;;;2.83;1.30;;;;;;;;;;10474668;28;20040;-76
2023/12/20 00:44:10;;;;;;;1.67;1.13;;;;;;;;;;10470003;28;20084;-74
2023/12/20 00:49:14;;;;;;;2.50;1.60;;;;;;;;;;10465817;28;20049;-74
2023/12/20 00:54:20;;;;;;;2.67;1.20;;;;;;;;;;10468416;28;20029;-74
2023/12/20 00:59:35;;;;;;;1.40;1.10;;;;;;;;;;10453180;28;20064;-73
2023/12/20 01:04:43;;;;;;;3.22;1.23;;;;;;;;;;10466441;28;20076;-75
2023/12/20 01:10:01;;;;;;;0.68;0.38;;;;;;;;;;10489172;28;20273;-75
2023/12/20 01:15:14;;;;;;;2.25;1.25;;;;;;;;;;10453985;28;20424;-75
2023/12/20 01:20:21;;;;;;;2.47;1.38;;;;;;;;;;10464954;28;20785;-75
2023/12/20 01:25:35;;;;;;;2.38;1.45;;;;;;;;;;10463703;28;20478;-76
2023/12/20 01:30:41;;;;;;;2.42;1.00;;;;;;;;;;10458770;28;20044;-75
2023/12/20 01:35:52;;;;;;;1.20;0.90;;;;;;;;;;10479549;28;20033;-74
2023/12/20 01:40:56;;;;;;;2.95;1.42;;;;;;;;;;10459258;28;20075;-74
2023/12/20 01:46:14;;;;;;;2.63;1.00;;;;;;;;;;10483065;28;20463;-75
2023/12/20 01:51:31;;;;;;;4.07;0.90;;;;;;;;;;10492458;28;20044;-75
2023/12/20 01:56:39;;;;;;;1.30;0.50;;;;;;;;;;10469829;28;20103;-75
2023/12/20 02:01:48;;;;;;;1.88;0.88;;;;;;;;;;10474959;28;20184;-75
2023/12/20 02:06:58;;;;;;;2.15;1.10;;;;;;;;;;10465503;28;20048;-75
2023/12/20 02:12:02;;;;;;;1.13;0.68;;;;;;;;;;10489257;28;20029;-75
2023/12/20 02:17:16;;;;;;;3.53;0.82;;;;;;;;;;10455575;28;20040;-75
2023/12/20 02:22:26;;;;;;;1.40;0.90;;;;;;;;;;10475521;28;20600;-75
2023/12/20 02:27:34;;;;;;;0.52;0.43;;;;;;;;;;10470936;28;20036;-76
2023/12/20 02:32:46;;;;;;;2.25;1.00;;;;;;;;;;10472913;28;20040;-75
2023/12/20 02:38:00;;;;;;;1.08;0.65;;;;;;;;;;10488974;28;20040;-76
2023/12/20 02:43:10;;;;;;;;;;;;;;;;;;10469323;28;20052;-76
2023/12/20 02:48:15;;;;;;;1.13;0.70;;;;;;;;;;10455500;28;20288;-75
2023/12/20 02:53:21;;;;;;;0.60;0.50;;;;;;;;;;10451688;28;20032;-75
2023/12/20 02:58:42;;;;;;;0.80;0.50;;;;;;;;;;10453425;28;20385;-76
2023/12/20 03:04:06;;;;;;;1.33;0.60;;;;;;;;;;10470160;28;20414;-76
2023/12/20 03:09:27;;;;;;;0.63;0.50;;;;;;;;;;10455143;28;20037;-75
2023/12/20 03:14:39;;;;;;;0.28;0.28;;;;;;;;;;10473694;28;20063;-76
2023/12/20 03:19:44;;;;;;;3.28;0.63;;;;;;;;;;10472479;28;20097;-75
2023/12/20 03:24:49;;;;;;;1.08;0.60;;;;;;;;;;10470800;28;20040;-75
2023/12/20 03:29:57;;;;;;;0.25;0.25;;;;;;;;;;10451021;28;20626;-75
2023/12/20 03:35:10;;;;;;;0.90;0.50;;;;;;;;;;10468617;28;20077;-76
2023/12/20 03:40:16;;;;;;;0.40;0.40;;;;;;;;;;10443462;28;20482;-75
2023/12/20 03:45:20;;;;;;;1.25;0.70;;;;;;;;;;10446939;28;20063;-76
2023/12/20 03:50:30;;;;;;;2.50;0.75;;;;;;;;;;10472369;28;20422;-74
2023/12/20 03:55:38;;;;;;;1.40;0.73;;;;;;;;;;10487803;28;20048;-74
2023/12/20 04:00:42;;;;;;;1.65;0.80;;;;;;;;;;10434536;28;20048;-76
2023/12/20 04:05:47;;;;;;;0.55;0.40;;;;;;;;;;10450113;28;20045;-75
2023/12/20 04:10:59;;;;;;;0.63;0.43;;;;;;;;;;10473213;28;20036;-76
2023/12/20 04:16:02;;;;;;;1.15;0.82;;;;;;;;;;10472976;28;20040;-76
2023/12/20 04:21:08;;;;;;;0.95;0.63;;;;;;;;;;10470865;28;20044;-75
2023/12/20 04:26:21;;;;;;;1.27;0.75;;;;;;;;;;10477775;28;20040;-74
2023/12/20 04:31:24;;;;;;;0.88;0.43;;;;;;;;;;10469636;28;20570;-74
2023/12/20 04:36:29;;;;;;;0.80;0.63;;;;;;;;;;10432595;28;20129;-75
2023/12/20 04:41:41;;;;;;;2.45;0.65;;;;;;;;;;10470472;28;20408;-74
2023/12/20 04:46:46;;;;;;;1.27;0.90;;;;;;;;;;10465408;28;20044;-74
2023/12/20 04:51:52;;;;;;;0.95;0.73;;;;;;;;;;10459071;28;20068;-75
2023/12/20 04:56:55;;;;;;;;;;;;;;;;;;10487272;28;20052;-74
2023/12/20 05:02:24;;;;;;;1.35;0.98;;;;;;;;;;10453776;28;19991;-74
2023/12/20 05:07:28;;;;;;;3.30;1.65;;;;;;;;;;10464822;28;20134;-75
2023/12/20 05:12:34;;;;;;;2.97;1.70;;;;;;;;;;10473412;28;20118;-74
2023/12/20 05:17:39;;;;;;;1.63;1.20;;;;;;;;;;10457333;28;20052;-75
2023/12/20 05:22:48;;;;;;;2.80;1.70;;;;;;;;;;10455175;28;20055;-75
2023/12/20 05:27:58;;;;;;;5.38;2.10;;;;;;;;;;10471287;28;20037;-74
2023/12/20 05:33:09;;;;;;;3.38;1.73;;;;;;;;;;10441817;28;20417;-75
2023/12/20 05:38:13;;;;;;;3.88;1.90;;;;;;;;;;10477043;28;20423;-74
2023/12/20 05:43:19;;;;;;;2.67;1.30;;;;;;;;;;10446946;28;20046;-74
2023/12/20 05:48:32;;;;;;;4.28;1.88;;;;;;;;;;10467736;28;20037;-74
2023/12/20 05:53:35;;;;;;;2.90;1.67;;;;;;;;;;10464219;28;20048;-74
2023/12/20 05:58:39;;;;;;;1.73;1.10;;;;;;;;;;10473639;28;20517;-74
2023/12/20 06:03:57;;;;;;;3.33;1.50;;;;;;;;;;10465745;28;20033;-76
2023/12/20 06:09:07;;;;;;;2.05;1.10;;;;;;;;;;10475109;28;20068;-74
2023/12/20 06:14:16;;;;;;;1.67;1.13;;;;;;;;;;10481520;28;20037;-75
2023/12/20 06:19:20;;;;;;;3.13;1.63;;;;;;;;;;10499499;28;20052;-75
2023/12/20 06:24:29;;;;;;;3.08;1.17;;;;;;;;;;10461489;28;20620;-76
2023/12/20 06:29:37;;;;;;;2.67;1.63;;;;;;;;;;10487732;28;20498;-74
2023/12/20 06:34:45;;;;;;;2.58;1.60;;;;;;;;;;10452455;28;20037;-74
2023/12/20 06:39:52;;;;;;;2.67;1.35;;;;;;;;;;10462660;28;20533;-75
2023/12/20 06:44:57;;;;;;;2.25;1.48;;;;;;;;;;10475818;28;20498;-74
2023/12/20 06:50:02;;;;;;;1.35;1.20;;;;;;;;;;10478199;28;20102;-75
2023/12/20 06:55:12;;;;;;;2.45;1.52;;;;;;;;;;10474615;28;20044;-74
2023/12/20 07:00:27;;;;;;;2.35;1.30;;;;;;;;;;10478297;28;20190;-75
2023/12/20 07:05:38;;;;;;;2.33;1.33;;;;;;;;;;10457864;28;20057;-75
2023/12/20 07:10:45;;;;;;;2.08;1.20;;;;;;;;;;10473869;28;20127;-75
2023/12/20 07:15:50;;;;;;;2.55;1.38;;;;;;;;;;10455470;28;20041;-75
2023/12/20 07:20:56;;;;;;;3.20;1.23;;;;;;;;;;10475461;28;20049;-75
2023/12/20 07:26:05;;;;;;;1.55;0.75;;;;;;;;;;10470605;28;20049;-75
2023/12/20 07:31:08;;;;;;;0.98;0.73;;;;;;;;;;10485528;28;20045;-75
2023/12/20 07:36:16;;;;;;;3.72;0.88;;;;;;;;;;10473490;28;20380;-74
2023/12/20 07:41:23;;;;;;;2.25;0.85;;;;;;;;;;10471419;28;20068;-74
2023/12/20 07:46:31;;;;;;;2.92;1.10;;;;;;;;;;10466685;28;20065;-74
2023/12/20 07:51:35;;;;;;;0.85;0.50;;;;;;;;;;10468168;28;20075;-74
2023/12/20 07:56:43;;;;;;;2.05;0.70;;;;;;;;;;10465505;28;20048;-74
2023/12/20 08:01:52;;;;;;;1.77;0.55;;;;;;;;;;10465079;28;20048;-74
2023/12/20 08:06:57;;;;;;;2.90;1.02;;;;;;;;;;10466757;28;20127;-73
2023/12/20 08:12:07;;;;;;;2.05;0.80;;;;;;;;;;10451325;28;20087;-73
2023/12/20 08:17:10;;;;;;;2.22;0.77;;;;;;;;;;10448548;28;20036;-73
2023/12/20 08:22:16;;;;;;;1.45;0.70;;;;;;;;;;10439529;28;20136;-74
2023/12/20 08:27:21;;;;;;;1.20;0.55;;;;;;;;;;10461356;28;20052;-74
2023/12/20 08:32:28;;;;;;;1.40;0.80;;;;;;;;;;10463580;28;20417;-74
2023/12/20 08:37:32;;;;;;;1.15;0.75;;;;;;;;;;10462276;28;21228;-74
2023/12/20 08:42:39;;;;;;;1.55;0.68;;;;;;;;;;10450396;28;20475;-76
2023/12/20 08:47:44;;;;;;;0.93;0.70;;;;;;;;;;10467905;28;20444;-74
2023/12/20 08:52:57;;;;;;;1.08;0.63;;;;;;;;;;10464442;28;20497;-74
2023/12/20 08:58:09;;;;;;;0.70;0.60;;;;;;;;;;10448181;28;20120;-75
2023/12/20 09:03:14;;;;;;;0.35;0.25;;;;;;;;;;10463765;28;20082;-74
2023/12/20 09:08:22;;;;;;;2.55;0.68;;;;;;;;;;10466160;28;20525;-74
2023/12/20 09:13:28;;;;;;;1.85;0.95;;;;;;;;;;10449150;28;20048;-74
2023/12/20 09:18:32;;;;;;;1.95;0.68;;;;;;;;;;10467912;28;20399;-73
2023/12/20 09:23:36;;;;;;;1.13;0.70;;;;;;;;;;10471936;28;20620;-73
2023/12/20 09:28:42;;;;;;;1.30;0.60;;;;;;;;;;10470135;28;20036;-74
2023/12/20 09:33:49;;;;;;;1.17;0.50;;;;;;;;;;10470015;28;20052;-75
2023/12/20 09:38:54;;;;;;;1.00;0.70;;;;;;;;;;10468515;28;20142;-75
2023/12/20 09:44:03;;;;;;;1.65;0.88;;;;;;;;;;10478432;28;20040;-74
2023/12/20 09:49:07;;;;;;;2.30;0.70;;;;;;;;;;10461068;28;20045;-74
2023/12/20 09:54:12;;;;;;;0.80;0.60;;;;;;;;;;10461395;28;20040;-75
2023/12/20 09:59:21;;;;;;;0.77;0.77;;;;;;;;;;10469687;28;20537;-74
2023/12/20 10:04:25;;;;;;;0.70;0.70;;;;;;;;;;10478132;28;20509;-75
2023/12/20 10:09:34;;;;;;;1.33;0.70;;;;;;;;;;10489828;28;20039;-73
2023/12/20 10:14:41;;;;;;;1.05;0.88;;;;;;;;;;10470239;28;20063;-74
2023/12/20 10:19:50;;;;;;;1.63;1.02;;;;;;;;;;10465041;28;20043;-73
2023/12/20 10:24:54;;;;;;;1.67;1.00;;;;;;;;;;10485546;28;20170;-73
2023/12/20 10:30:02;;;;;;;1.52;0.70;;;;;;;;;;10474200;28;20056;-74
2023/12/20 10:35:06;;;;;;;0.90;0.77;;;;;;;;;;10464796;28;20044;-74
2023/12/20 10:40:09;;;;;;;;;;;;;;;;;;10451556;28;20048;-75
2023/12/20 10:45:17;;;;;;;0.82;0.73;;;;;;;;;;10470640;28;20022;-74
2023/12/20 10:50:22;;;;;;;0.80;0.70;;;;;;;;;;10471377;28;20044;-77
2023/12/20 10:55:28;;;;;;;0.30;0.30;;;;;;;;;;10472602;28;20764;-74
2023/12/20 11:00:40;;;;;;;1.23;0.95;;;;;;;;;;10473121;28;20055;-74
2023/12/20 11:05:48;;;;;;;1.17;0.85;;;;;;;;;;10456557;28;20127;-74
2023/12/20 11:10:58;;;;;;;1.88;1.00;;;;;;;;;;10467745;28;20395;-75
2023/12/20 11:16:07;;;;;;;1.80;1.02;;;;;;;;;;10452478;28;20497;-73
2023/12/20 11:21:16;;;;;;;2.00;0.80;;;;;;;;;;10471847;28;20124;-74
2023/12/20 11:26:23;;;;;;;1.65;1.10;;;;;;;;;;10450361;28;20079;-75
2023/12/20 11:31:29;;;;;;;2.38;1.30;;;;;;;;;;10491590;28;20072;-74
2023/12/20 11:36:37;;;;;;;1.30;0.90;;;;;;;;;;10472057;28;20056;-75
2023/12/20 11:41:40;;;;;;;1.83;1.20;;;;;;;;;;10473213;28;20048;-74
2023/12/20 11:46:44;;;;;;;;;;;;;;;;;;10471019;28;20069;-72
2023/12/20 11:51:56;;;;;;;1.48;0.90;;;;;;;;;;10470794;28;20411;-74
2023/12/20 11:57:00;;;;;;;2.08;1.23;;;;;;;;;;10483879;28;20489;-74
2023/12/20 12:02:07;;;;;;;1.73;1.10;;;;;;;;;;10466723;28;20106;-74
2023/12/20 12:07:12;;;;;;;1.92;1.13;;;;;;;;;;10468190;28;20045;-76
2023/12/20 12:12:19;;;;;;;2.45;0.90;;;;;;;;;;10434158;28;20121;-74
2023/12/20 12:17:25;;;;;;;2.00;1.00;;;;;;;;;;10440165;28;20094;-74
2023/12/20 12:22:28;;;;;;;;;;;;;;;;;;10443350;28;20056;-74
2023/12/20 12:27:38;;;;;;;2.13;1.15;;;;;;;;;;10453426;28;19925;-74
2023/12/20 12:32:42;;;;;;;1.40;0.85;;;;;;;;;;10468986;28;20064;-75
2023/12/20 12:37:49;;;;;;;1.40;0.80;;;;;;;;;;10441987;28;20123;-76
2023/12/20 12:42:56;;;;;;;0.98;0.70;;;;;;;;;;10472945;28;20366;-74
2023/12/20 12:53:24;;;;;;;1.25;0.80;;;;;;;;;;10467197;28;20388;-75
2023/12/20 12:58:32;;;;;;;5.80;1.20;;;;;;;;;;10472384;28;20491;-77
2023/12/20 13:03:37;;;;;;;3.38;1.30;;;;;;;;;;10476843;28;20056;-75
2023/12/20 13:08:45;;;;;;;3.30;1.80;;;;;;;;;;10469943;28;20044;-76
2023/12/20 13:14:03;;;;;;;1.55;1.30;;;;;;;;;;10455127;28;20103;-76
2023/12/20 13:19:20;;;;;;;2.03;0.90;;;;;;;;;;10461985;28;20143;-74
2023/12/20 13:24:26;;;;;;;4.40;2.05;;;;;;;;;;10472037;28;20136;-75
2023/12/20 13:29:34;;;;;;;1.48;0.90;;;;;;;;;;10474239;28;20040;-74
2023/12/20 13:34:42;;;;;;;3.72;1.33;;;;;;;;;;10477437;28;20052;-75
2023/12/20 13:39:49;;;;;;;3.35;2.00;;;;;;;;;;10494067;28;20671;-74
2023/12/20 13:45:10;;;;;;;3.95;1.50;;;;;;;;;;10459486;28;20492;-74
2023/12/20 13:50:21;;;;;;;2.70;1.35;;;;;;;;;;10454844;28;20063;-75
2023/12/20 13:55:27;;;;;;;4.50;1.55;;;;;;;;;;10457757;28;20571;-74
2023/12/20 14:00:36;;;;;;;5.40;2.05;;;;;;;;;;10470470;28;20043;-75
2023/12/20 14:05:45;;;;;;;3.03;1.50;;;;;;;;;;10470511;28;20040;-74
2023/12/20 14:10:50;;;;;;;2.67;1.48;;;;;;;;;;10473628;28;20121;-74
2023/12/20 14:16:07;;;;;;;3.55;1.33;;;;;;;;;;10476162;28;20043;-74
2023/12/20 14:21:20;;;;;;;2.80;1.67;;;;;;;;;;10466136;28;20047;-74
2023/12/20 14:26:23;;;;;;;2.83;1.58;;;;;;;;;;10445041;28;20037;-75
2023/12/20 14:31:32;;;;;;;4.15;1.10;;;;;;;;;;10473166;28;20037;-74
2023/12/20 14:36:37;;;;;;;1.80;1.30;;;;;;;;;;10463412;28;20045;-74
2023/12/20 14:41:44;;;;;;;4.15;1.52;;;;;;;;;;10491704;28;20044;-74
2023/12/20 14:46:58;;;;;;;5.07;1.42;;;;;;;;;;10472107;28;20199;-74
2023/12/20 14:52:11;;;;;;;3.80;1.55;;;;;;;;;;10472164;28;20052;-74
2023/12/20 14:57:14;;;;;;;3.83;1.95;;;;;;;;;;10469879;28;20063;-74
2023/12/20 15:02:25;;;;;;;3.90;1.33;;;;;;;;;;10453094;28;20122;-74
2023/12/20 15:07:38;;;;;;;4.78;1.30;;;;;;;;;;10433026;28;20524;-74
2023/12/20 15:12:45;;;;;;;4.32;1.50;;;;;;;;;;10477883;28;20050;-73
2023/12/20 15:17:49;;;;;;;4.57;1.55;;;;;;;;;;10461332;28;20073;-74
2023/12/20 15:22:58;;;;;;;3.65;1.40;;;;;;;;;;10446177;28;20048;-75
2023/12/20 15:28:07;;;;;;;2.65;1.08;;;;;;;;;;10443374;28;20053;-74
2023/12/20 15:33:13;;;;;;;1.38;1.00;;;;;;;;;;10454394;28;20120;-74
2023/12/20 15:43:46;;;;;;;4.07;1.60;;;;;;;;;;10468619;28;20041;-77
2023/12/20 15:48:53;;;;;;;1.25;0.90;;;;;;;;;;10450576;28;20683;-75
2023/12/20 15:54:06;;;;;;;3.25;1.40;;;;;;;;;;10474863;28;20473;-74
2023/12/20 15:59:12;;;;;;;1.90;1.05;;;;;;;;;;10460252;28;20493;-74
2023/12/20 16:04:24;;;;;;;1.95;1.02;;;;;;;;;;10463899;28;20066;-74
2023/12/20 16:09:29;;;;;;;2.42;1.17;;;;;;;;;;10462763;28;20803;-74
2023/12/20 16:19:54;;;;;;;1.70;1.23;;;;;;;;;;10468920;28;20051;-74
2023/12/20 16:25:08;;;;;;;3.22;1.20;;;;;;;;;;10447373;28;20060;-75
2023/12/20 16:30:11;;;;;;;;;;;;;;;;;;10458611;28;20043;-74
2023/12/20 16:35:22;;;;;;;2.17;1.30;;;;;;;;;;10454880;28;20527;-76
2023/12/20 16:40:38;;;;;;;2.88;1.20;;;;;;;;;;10451807;28;20070;-75
2023/12/20 16:45:47;;;;;;;4.20;1.48;;;;;;;;;;10451698;28;20069;-75
2023/12/20 16:50:53;;;;;;;1.90;0.95;;;;;;;;;;10454749;28;20033;-73
2023/12/20 16:55:56;;;;;;;;;;;;;;;;;;10470744;28;20052;-74
2023/12/20 17:01:03;;;;;;;1.60;1.25;;;;;;;;;;10451920;28;20425;-75
2023/12/20 17:06:09;;;;;;;2.90;1.20;;;;;;;;;;10444173;28;20176;-74
2023/12/20 17:11:14;;;;;;;1.65;1.13;;;;;;;;;;10449701;28;20036;-74
2023/12/20 17:16:26;;;;;;;1.98;1.00;;;;;;;;;;10446012;28;21197;-74
2023/12/20 17:21:33;;;;;;;2.17;1.27;;;;;;;;;;10449532;28;20033;-74
2023/12/20 17:26:36;;;;;;;3.38;1.70;;;;;;;;;;10469063;28;20126;-74
2023/12/20 17:31:42;;;;;;;5.83;1.30;;;;;;;;;;10466462;28;20133;-74
2023/12/20 17:36:52;;;;;;;2.00;1.20;;;;;;;;;;10475444;28;20530;-74
2023/12/20 17:41:58;;;;;;;2.25;1.23;;;;;;;;;;10468346;28;20309;-74
2023/12/20 17:47:07;;;;;;;2.63;1.00;;;;;;;;;;10451237;28;20114;-75
2023/12/20 17:52:15;;;;;;;2.95;1.00;;;;;;;;;;10464347;28;20040;-74
2023/12/20 17:57:25;;;;;;;1.77;1.08;;;;;;;;;;10469774;28;20526;-75
2023/12/20 18:02:31;;;;;;;3.00;1.00;;;;;;;;;;10490149;28;20063;-74
2023/12/20 18:07:36;;;;;;;1.10;0.70;;;;;;;;;;10490228;28;21012;-74
2023/12/20 18:12:45;;;;;;;2.28;1.02;;;;;;;;;;10471014;28;20425;-74
2023/12/20 18:17:51;;;;;;;3.20;0.80;;;;;;;;;;10488848;28;20126;-74
2023/12/20 18:23:01;;;;;;;2.30;1.05;;;;;;;;;;10472560;28;20047;-74
2023/12/20 18:28:07;;;;;;;2.78;0.93;;;;;;;;;;10458367;28;20059;-75
2023/12/20 18:33:11;;;;;;;3.55;0.57;;;;;;;;;;10474034;28;20147;-74
2023/12/20 18:38:16;;;;;;;2.70;0.93;;;;;;;;;;10476085;28;20119;-74
2023/12/20 18:43:21;;;;;;;5.75;1.27;;;;;;;;;;10444858;28;20075;-74
2023/12/20 18:48:32;;;;;;;3.20;1.35;;;;;;;;;;10476749;28;20037;-76
2023/12/20 18:53:40;;;;;;;2.38;1.00;;;;;;;;;;10490278;28;20120;-74
2023/12/20 18:58:45;;;;;;;1.17;0.60;;;;;;;;;;10470322;28;20091;-75
2023/12/20 19:03:52;;;;;;;2.85;1.05;;;;;;;;;;10490842;28;20051;-74
2023/12/20 19:08:56;;;;;;;3.47;1.10;;;;;;;;;;10449334;28;20095;-74
2023/12/20 19:14:00;;;;;;;5.00;1.30;;;;;;;;;;10474364;28;20524;-75
2023/12/20 19:19:07;;;;;;;5.80;1.10;;;;;;;;;;10455137;28;20047;-74
2023/12/20 19:24:14;;;;;;;1.42;0.60;;;;;;;;;;10456362;28;20037;-75
2023/12/20 19:29:28;;;;;;;2.22;0.80;;;;;;;;;;10477167;28;20075;-74
2023/12/20 19:34:36;;;;;;;1.25;0.60;;;;;;;;;;10440555;28;20037;-74
2023/12/20 19:39:41;;;;;;;3.25;1.00;;;;;;;;;;10431976;28;20047;-74
2023/12/20 19:44:52;;;;;;;2.10;0.90;;;;;;;;;;10469639;28;20118;-74
2023/12/20 19:50:03;;;;;;;2.15;1.33;;;;;;;;;;10454927;28;20064;-74
2023/12/20 19:55:12;;;;;;;2.45;1.38;;;;;;;;;;10446613;28;20051;-75
2023/12/20 20:00:16;;;;;;;2.80;1.70;;;;;;;;;;10454120;28;20232;-76
2023/12/20 20:05:25;;;;;;;3.08;1.00;;;;;;;;;;10440299;28;20049;-76
2023/12/20 20:10:33;;;;;;;3.03;0.80;;;;;;;;;;10471025;28;20048;-74
2023/12/20 20:15:37;;;;;;;2.40;1.23;;;;;;;;;;10472021;28;20478;-74
2023/12/20 20:20:42;;;;;;;1.67;0.83;;;;;;;;;;10453872;28;20071;-74
2023/12/20 20:25:46;;;;;;;0.75;0.57;;;;;;;;;;10466437;28;20533;-75
2023/12/20 20:30:53;;;;;;;3.63;1.10;;;;;;;;;;10466576;28;20144;-75
2023/12/20 20:36:06;;;;;;;1.58;1.02;;;;;;;;;;10471979;28;20651;-75
2023/12/20 20:41:16;;;;;;;2.65;1.20;;;;;;;;;;10470118;28;20040;-76
2023/12/20 20:46:26;;;;;;;1.83;1.15;;;;;;;;;;10459103;28;20281;-76
2023/12/20 20:51:40;;;;;;;2.92;1.58;;;;;;;;;;10473501;28;20077;-76
2023/12/20 20:56:45;;;;;;;1.38;0.85;;;;;;;;;;10459665;28;20051;-76
2023/12/20 21:01:50;;;;;;;1.58;0.80;;;;;;;;;;10466798;28;20118;-76
2023/12/20 21:12:32;;;;;;;5.07;1.25;;;;;;;;;;10450234;28;20041;-77
2023/12/20 21:17:43;;;;;;;2.88;0.65;;;;;;;;;;10454855;28;20049;-75
2023/12/20 21:22:53;;;;;;;3.70;1.13;;;;;;;;;;10452768;28;20710;-75
2023/12/20 21:28:06;;;;;;;1.60;1.10;;;;;;;;;;10460258;28;20142;-76
2023/12/20 21:33:13;;;;;;;4.18;1.10;;;;;;;;;;10474100;28;20073;-75
2023/12/20 21:38:20;;;;;;;4.15;1.48;;;;;;;;;;10477967;28;20468;-75
2023/12/20 21:43:29;;;;;;;4.43;1.30;;;;;;;;;;10452970;28;20506;-75
2023/12/20 21:48:36;;;;;;;3.53;1.20;;;;;;;;;;10472600;28;20041;-75
2023/12/20 21:53:43;;;;;;;1.88;0.98;;;;;;;;;;10456980;28;20087;-76
2023/12/20 21:59:07;;;;;;;2.00;1.00;;;;;;;;;;10475933;28;20484;-76
2023/12/20 22:04:14;;;;;;;3.13;0.70;;;;;;;;;;10462390;28;20044;-76
2023/12/20 22:09:27;;;;;;;2.47;0.97;;;;;;;;;;10489570;28;20497;-75
2023/12/20 22:14:33;;;;;;;1.48;0.70;;;;;;;;;;10456629;28;20037;-76
2023/12/20 22:19:53;;;;;;;1.48;0.80;;;;;;;;;;10455831;28;20056;-76
2023/12/20 22:25:04;;;;;;;1.75;0.60;;;;;;;;;;10465816;28;20047;-75
2023/12/20 22:30:09;;;;;;;2.35;0.70;;;;;;;;;;10468528;28;20462;-76
2023/12/20 22:35:19;;;;;;;1.98;0.90;;;;;;;;;;10482666;28;20056;-75
2023/12/20 22:40:27;;;;;;;1.33;0.68;;;;;;;;;;10468663;28;20063;-76
2023/12/20 22:45:37;;;;;;;2.88;0.70;;;;;;;;;;10469030;28;20072;-75
2023/12/20 22:50:41;;;;;;;1.48;0.70;;;;;;;;;;10468345;28;20048;-74
2023/12/20 22:55:49;;;;;;;0.95;0.65;;;;;;;;;;10466887;28;20211;-74
2023/12/20 23:00:55;;;;;;;0.82;0.45;;;;;;;;;;10467644;28;20107;-75
2023/12/20 23:06:11;;;;;;;2.38;0.85;;;;;;;;;;10470396;28;20562;-75
2023/12/20 23:11:18;;;;;;;1.23;0.75;;;;;;;;;;10468398;28;20040;-75
2023/12/20 23:16:21;;;;;;;1.75;0.70;;;;;;;;;;10451946;28;20235;-75
2023/12/20 23:21:25;;;;;;;1.30;0.50;;;;;;;;;;10454806;28;20173;-74
2023/12/20 23:26:33;;;;;;;1.38;0.52;;;;;;;;;;10467641;28;20155;-76
2023/12/20 23:31:42;;;;;;;2.05;0.50;;;;;;;;;;10454584;28;20147;-75
2023/12/20 23:36:49;;;;;;;1.95;0.80;;;;;;;;;;10455398;28;20505;-76
2023/12/20 23:42:00;;;;;;;0.85;0.50;;;;;;;;;;10473403;28;20081;-75
2023/12/20 23:47:07;;;;;;;1.95;0.60;;;;;;;;;;10465962;28;20052;-75
2023/12/20 23:52:28;;;;;;;2.15;0.40;;;;;;;;;;10465087;28;20417;-75
2023/12/20 23:57:33;;;;;;;1.80;0.30;;;;;;;;;;10443450;28;20090;-75
